Darstellungsparameter: Aktuell verwendete Einstellungen:
Skalierung der Graphiken ... ?
xyx+y,   Skalierungsfaktor:      Skalierung: Modus: x, Faktor: 1
Darstellungszeitraum ... ?
Vom - - bis: - -   Zeitraum: 04.05.2010 - 06.05.2010
Min/Max/Avg-Anzeige ... ?
Zeige MMA aktuell
Zeige MMA Monat
Zeige MMA alles
Zeige --A aktuell
Zeige --A Monat
Zeige --A alles
Keine MMA-Anzeige
MMA:
Average (ber die Originaldaten)
MMA-Basis: 04.05.2010 - 06.05.2010
Quicknavigation für Darstellung... ?
Tage:      1T, 2T, 3T, 5T -1T -2T -3T -5T +1T +2T +3T +5T
Wochen: 1W, 2W, 3W -1W -2W -3W +1W +2W +3W
Monate: 1M, 3M, 6M -1M -3M -6M +1M +3M +6M
Jahre:    1J, 3J, 5J, 10J -1J -3J -5J -10J +1J +3J +5J +10J
Nutze für die Darstellung ... ?
Originaldaten oder Mittelwerte auf ...
Stundenbasis Tagesbasis Wochenbasis
Monatsbasis Jahresbasis      Datenbasis: Original-Daten
Darstellen als:
Statistik (Auto) Statistik J:M      Darstellung:
Zur Graphik,    zurück zur Übersicht aller Sensoren.
 
Tabellarische Datenbersicht: ?
 
Sensor: Nr:Datum:Temp:Abs-Feuchte:Windchill:Wind:
Aussen-T/F 1 04-05-2010 00:08:05 8 C 6.37 g/m*3 8 C 0 km/h
2 04-05-2010 00:20:05 7.5 C 6.24 g/m*3 7.5 C 0 km/h
3 04-05-2010 00:32:05 7.2 C 6.28 g/m*3 7.2 C 0 km/h
4 04-05-2010 00:44:05 7.4 C 6.44 g/m*3 7.4 C 0 km/h
5 04-05-2010 00:56:05 7.8 C 6.69 g/m*3 7.8 C 0 km/h
6 04-05-2010 01:08:05 8 C 6.53 g/m*3 8 C 0 km/h
7 04-05-2010 01:20:06 8.1 C 6.49 g/m*3 8.1 C 0 km/h
8 04-05-2010 01:32:06 8.2 C 6.45 g/m*3 8.2 C 0 km/h
9 04-05-2010 01:44:06 8.3 C 6.49 g/m*3 8.3 C 0 km/h
10 04-05-2010 01:56:06 8.4 C 6.53 g/m*3 8.4 C 0 km/h
11 04-05-2010 02:08:06 8.4 C 6.53 g/m*3 8.4 C 0 km/h
12 04-05-2010 02:20:06 8.4 C 6.53 g/m*3 8.4 C 0 km/h
13 04-05-2010 02:32:06 8.4 C 6.53 g/m*3 8.4 C 0 km/h
14 04-05-2010 02:44:06 8.3 C 6.49 g/m*3 8.3 C 0 km/h
15 04-05-2010 02:56:06 8.4 C 6.62 g/m*3 8.4 C 0 km/h
16 04-05-2010 03:08:06 8.4 C 6.62 g/m*3 8.4 C 0 km/h
17 04-05-2010 03:20:06 8.4 C 6.62 g/m*3 8.4 C 0 km/h
18 04-05-2010 03:32:06 8.3 C 6.57 g/m*3 8.3 C 0 km/h
19 04-05-2010 03:44:06 8.2 C 6.62 g/m*3 8.2 C 0 km/h
20 04-05-2010 03:56:06 8.1 C 6.66 g/m*3 8.1 C 0 km/h
21 04-05-2010 04:08:06 8 C 6.61 g/m*3 8 C 0 km/h
22 04-05-2010 04:20:06 7.9 C 6.74 g/m*3 7.9 C 0 km/h
23 04-05-2010 04:32:06 7.9 C 6.82 g/m*3 7.9 C 0 km/h
24 04-05-2010 04:44:06 7.9 C 6.82 g/m*3 7.9 C 0 km/h
25 04-05-2010 04:56:06 7.9 C 6.82 g/m*3 7.9 C 0 km/h
Sensor: Nr:Datum:Temp:Abs-Feuchte:Windchill:Wind:
Aussen-T/F 26 04-05-2010 05:08:06 8 C 6.78 g/m*3 8 C 0 km/h
27 04-05-2010 05:20:06 8.1 C 6.82 g/m*3 8.1 C 0 km/h
28 04-05-2010 05:32:07 8.2 C 6.87 g/m*3 8.2 C 0 km/h
29 04-05-2010 05:44:07 8.2 C 6.87 g/m*3 8.2 C 0 km/h
30 04-05-2010 05:56:07 8.2 C 6.87 g/m*3 8.2 C 0 km/h
31 04-05-2010 06:08:07 8.1 C 6.82 g/m*3 8.1 C 0 km/h
32 04-05-2010 06:20:07 8.2 C 6.87 g/m*3 8.2 C 0 km/h
33 04-05-2010 06:32:07 8.2 C 6.87 g/m*3 8.2 C 0 km/h
34 04-05-2010 06:44:07 8.3 C 6.91 g/m*3 8.3 C 0 km/h
35 04-05-2010 06:56:02 8.4 C 6.96 g/m*3 8.4 C 0 km/h
36 04-05-2010 07:08:01 8.5 C 7 g/m*3 8.5 C 0 km/h
37 04-05-2010 07:20:02 8.6 C 6.96 g/m*3 8.6 C 0 km/h
38 04-05-2010 07:32:01 8.7 C 7.01 g/m*3 8.7 C 0 km/h
39 04-05-2010 07:44:01 8.7 C 6.92 g/m*3 8.7 C 0 km/h
40 04-05-2010 07:56:02 8.8 C 6.79 g/m*3 8.8 C 0 km/h
41 04-05-2010 08:08:01 9.2 C 6.61 g/m*3 9.2 C 0 km/h
42 04-05-2010 08:20:01 9 C 6.44 g/m*3 9 C 0 km/h
43 04-05-2010 08:32:02 9.1 C 6.48 g/m*3 9.1 C 0 km/h
44 04-05-2010 08:44:03 8.9 C 6.31 g/m*3 8.9 C 0 km/h
45 04-05-2010 08:56:02 8.9 C 6.31 g/m*3 8.9 C 0 km/h
46 04-05-2010 09:08:02 9.2 C 6.34 g/m*3 9.2 C 0 km/h
47 04-05-2010 09:20:01 9.1 C 6.21 g/m*3 9.1 C 0 km/h
48 04-05-2010 09:32:02 9.3 C 6.29 g/m*3 9.3 C 0 km/h
49 04-05-2010 09:44:02 9.3 C 6.2 g/m*3 9.3 C 0 km/h
50 04-05-2010 09:56:02 9.5 C 6.19 g/m*3 9.5 C 0 km/h
Sensor: Nr:Datum:Temp:Abs-Feuchte:Windchill:Wind:
Aussen-T/F 51 04-05-2010 10:08:02 9.6 C 6.14 g/m*3 9.6 C 0 km/h
52 04-05-2010 10:20:01 9.8 C 5.85 g/m*3 9.8 C 0 km/h
53 04-05-2010 10:32:02 9.8 C 5.85 g/m*3 9.8 C 0 km/h
54 04-05-2010 10:44:02 9.9 C 5.7 g/m*3 9.9 C 0 km/h
55 04-05-2010 10:56:01 10 C 5.54 g/m*3 10 C 0 km/h
56 04-05-2010 11:08:02 10.2 C 5.52 g/m*3 10.2 C 0 km/h
57 04-05-2010 11:20:02 10.5 C 5.24 g/m*3 10.5 C 0 km/h
58 04-05-2010 11:32:02 10.7 C 5.21 g/m*3 10.7 C 0 km/h
59 04-05-2010 11:44:02 11.1 C 5.04 g/m*3 11.1 C 0 km/h
60 04-05-2010 11:56:02 11.3 C 5 g/m*3 11.3 C 0 km/h
61 04-05-2010 12:08:02 10.8 C 4.94 g/m*3 10.8 C 0 km/h
62 04-05-2010 12:20:02 10.5 C 4.85 g/m*3 10.5 C 0 km/h
63 04-05-2010 12:32:01 10.6 C 4.78 g/m*3 10.6 C 0 km/h
64 04-05-2010 12:44:01 11.6 C 4.89 g/m*3 11.6 C 0 km/h
65 04-05-2010 12:56:02 12 C 4.69 g/m*3 12 C 0 km/h
66 04-05-2010 13:08:01 12.2 C 4.64 g/m*3 12.2 C 0 km/h
67 04-05-2010 13:20:02 11.7 C 4.71 g/m*3 11.7 C 0 km/h
68 04-05-2010 13:32:01 11.8 C 4.53 g/m*3 11.8 C 0 km/h
69 04-05-2010 13:44:01 12 C 4.48 g/m*3 12 C 0 km/h
70 04-05-2010 13:56:02 12.2 C 4.53 g/m*3 12.2 C 0 km/h
71 04-05-2010 14:08:02 12.1 C 4.5 g/m*3 12.1 C 0 km/h
72 04-05-2010 14:20:02 12.5 C 4.84 g/m*3 12.5 C 0 km/h
73 04-05-2010 14:32:02 13.1 C 4.56 g/m*3 13.1 C 0 km/h
74 04-05-2010 14:44:02 13.4 C 4.65 g/m*3 13.4 C 0 km/h
75 04-05-2010 14:56:02 13.5 C 4.44 g/m*3 13.5 C 0 km/h
Sensor: Nr:Datum:Temp:Abs-Feuchte:Windchill:Wind:
Aussen-T/F 76 04-05-2010 15:08:02 13.5 C 4.56 g/m*3 13.5 C 0 km/h
77 04-05-2010 15:20:02 13.8 C 4.41 g/m*3 13.8 C 0 km/h
78 04-05-2010 15:32:02 13.5 C 4.44 g/m*3 13.5 C 0 km/h
79 04-05-2010 15:44:02 13.5 C 4.56 g/m*3 13.5 C 0 km/h
80 04-05-2010 15:56:02 12.9 C 4.51 g/m*3 12.9 C 0 km/h
81 04-05-2010 16:08:02 12.5 C 4.51 g/m*3 12.5 C 0 km/h
82 04-05-2010 16:20:02 12.8 C 4.59 g/m*3 12.8 C 0 km/h
83 04-05-2010 16:32:02 12.5 C 4.4 g/m*3 12.5 C 0 km/h
84 04-05-2010 16:44:02 12.5 C 4.4 g/m*3 12.5 C 0 km/h
85 04-05-2010 16:56:01 12 C 4.26 g/m*3 12 C 0 km/h
86 04-05-2010 17:08:02 12 C 4.26 g/m*3 12 C 0 km/h
87 04-05-2010 17:20:01 11.4 C 4.31 g/m*3 11.4 C 0 km/h
88 04-05-2010 17:32:02 11.4 C 4.41 g/m*3 11.4 C 0 km/h
89 04-05-2010 17:44:02 11.5 C 4.34 g/m*3 11.5 C 0 km/h
90 04-05-2010 17:56:02 11.4 C 4.31 g/m*3 11.4 C 0 km/h
91 04-05-2010 18:08:02 11.5 C 4.23 g/m*3 11.5 C 0 km/h
92 04-05-2010 18:20:02 11.4 C 4.21 g/m*3 11.4 C 0 km/h
93 04-05-2010 18:32:02 11.2 C 4.16 g/m*3 11.2 C 0 km/h
94 04-05-2010 18:44:02 11.1 C 4.13 g/m*3 11.1 C 0 km/h
95 04-05-2010 18:56:02 11 C 4.3 g/m*3 11 C 0 km/h
96 04-05-2010 19:08:02 11 C 4.3 g/m*3 11 C 0 km/h
97 04-05-2010 19:20:02 12 C 4.16 g/m*3 12 C 0 km/h
98 04-05-2010 19:32:02 11.4 C 4 g/m*3 11.4 C 0 km/h
99 04-05-2010 19:44:02 11 C 4 g/m*3 11 C 0 km/h
100 04-05-2010 19:56:01 11 C 4.2 g/m*3 11 C 0 km/h
Sensor: Nr:Datum:Temp:Abs-Feuchte:Windchill:Wind:
Aussen-T/F 101 04-05-2010 20:08:02 10.7 C 4.22 g/m*3 10.7 C 0 km/h
102 04-05-2010 20:20:01 10.6 C 4.49 g/m*3 10.6 C 0 km/h
103 04-05-2010 20:32:01 10.1 C 4.35 g/m*3 10.1 C 0 km/h
104 04-05-2010 20:44:01 9.8 C 4.36 g/m*3 9.8 C 0 km/h
105 04-05-2010 20:56:01 9.4 C 4.34 g/m*3 9.4 C 0 km/h
106 04-05-2010 21:08:02 9.5 C 4.28 g/m*3 9.5 C 0 km/h
107 04-05-2010 21:20:01 9.6 C 4.31 g/m*3 9.6 C 0 km/h
108 04-05-2010 21:32:01 9.7 C 4.61 g/m*3 9.7 C 0 km/h
109 04-05-2010 21:44:01 9.5 C 4.64 g/m*3 9.5 C 0 km/h
110 04-05-2010 21:56:01 8.8 C 4.61 g/m*3 8.8 C 0 km/h
111 04-05-2010 22:09:04 8.2 C 4.35 g/m*3 8.2 C 0 km/h
112 04-05-2010 22:21:04 8.1 C 4.33 g/m*3 8.1 C 0 km/h
113 04-05-2010 22:33:05 7.8 C 4.24 g/m*3 7.8 C 0 km/h
114 04-05-2010 22:45:05 7.7 C 4.14 g/m*3 7.7 C 0 km/h
115 04-05-2010 22:57:05 7.5 C 4.16 g/m*3 7.5 C 0 km/h
116 04-05-2010 23:09:05 7.4 C 4.14 g/m*3 7.4 C 0 km/h
117 04-05-2010 23:21:05 7.4 C 4.14 g/m*3 7.4 C 0 km/h
118 04-05-2010 23:33:05 7.3 C 4.03 g/m*3 7.3 C 0 km/h
119 04-05-2010 23:45:05 7.3 C 4.03 g/m*3 7.3 C 0 km/h
120 04-05-2010 23:57:05 7 C 3.95 g/m*3 7 C 0 km/h
121 05-05-2010 00:09:05 6.8 C 4.05 g/m*3 6.8 C 0 km/h
122 05-05-2010 00:21:05 6.7 C 4.18 g/m*3 6.7 C 0 km/h
123 05-05-2010 00:33:05 6.3 C 4.22 g/m*3 6.3 C 0 km/h
124 05-05-2010 00:45:05 6 C 4.21 g/m*3 6 C 0 km/h
125 05-05-2010 00:57:05 5.8 C 4.37 g/m*3 5.8 C 0 km/h
Sensor: Nr:Datum:Temp:Abs-Feuchte:Windchill:Wind:
Aussen-T/F 126 05-05-2010 01:09:05 5.5 C 4.35 g/m*3 5.5 C 0 km/h
127 05-05-2010 01:21:05 5.3 C 4.44 g/m*3 5.3 C 0 km/h
128 05-05-2010 01:33:05 5.4 C 4.4 g/m*3 5.4 C 0 km/h
129 05-05-2010 01:45:05 5.6 C 4.31 g/m*3 5.6 C 0 km/h
130 05-05-2010 01:57:05 5.6 C 4.24 g/m*3 5.6 C 0 km/h
131 05-05-2010 02:09:05 5.7 C 4.13 g/m*3 5.7 C 0 km/h
132 05-05-2010 02:21:05 5.7 C 4.13 g/m*3 5.7 C 0 km/h
133 05-05-2010 02:33:05 5.6 C 4.17 g/m*3 5.6 C 0 km/h
134 05-05-2010 02:45:06 5.5 C 4.21 g/m*3 5.5 C 0 km/h
135 05-05-2010 02:57:06 5.2 C 4.2 g/m*3 5.2 C 0 km/h
136 05-05-2010 03:09:06 5.1 C 4.24 g/m*3 5.1 C 0 km/h
137 05-05-2010 03:21:06 4.8 C 4.22 g/m*3 4.8 C 0 km/h
138 05-05-2010 03:33:06 4.7 C 4.13 g/m*3 4.7 C 0 km/h
139 05-05-2010 03:45:06 4.6 C 4.1 g/m*3 4.6 C 0 km/h
140 05-05-2010 03:57:06 4.5 C 4.01 g/m*3 4.5 C 0 km/h
141 05-05-2010 04:09:06 4.3 C 3.96 g/m*3 4.3 C 0 km/h
142 05-05-2010 04:21:06 4 C 4.01 g/m*3 4 C 0 km/h
143 05-05-2010 04:33:06 3.8 C 4.08 g/m*3 3.8 C 0 km/h
144 05-05-2010 04:45:06 3.7 C 4.11 g/m*3 3.7 C 0 km/h
145 05-05-2010 04:57:06 3.7 C 4.05 g/m*3 3.7 C 0 km/h
146 05-05-2010 05:09:06 3.6 C 4.02 g/m*3 3.6 C 0 km/h
147 05-05-2010 05:21:06 3.6 C 3.96 g/m*3 3.6 C 0 km/h
148 05-05-2010 05:33:06 3.6 C 3.9 g/m*3 3.6 C 0 km/h
149 05-05-2010 05:45:06 3.4 C 3.79 g/m*3 3.4 C 0 km/h
150 05-05-2010 05:57:06 3.2 C 3.86 g/m*3 3.2 C 0 km/h
Sensor: Nr:Datum:Temp:Abs-Feuchte:Windchill:Wind:
Aussen-T/F 151 05-05-2010 06:09:06 3 C 3.86 g/m*3 3 C 0 km/h
152 05-05-2010 06:21:06 2.8 C 3.99 g/m*3 2.8 C 0 km/h
153 05-05-2010 06:33:03 2.6 C 3.99 g/m*3 2.6 C 0 km/h
154 05-05-2010 06:45:03 2.5 C 4.02 g/m*3 2.5 C 0 km/h
155 05-05-2010 06:57:03 2.5 C 4.08 g/m*3 2.5 C 0 km/h
156 05-05-2010 07:09:02 2.5 C 4.14 g/m*3 2.5 C 0 km/h
157 05-05-2010 07:21:03 2.7 C 4.25 g/m*3 2.7 C 0 km/h
158 05-05-2010 07:33:02 2.8 C 4.28 g/m*3 2.8 C 0 km/h
159 05-05-2010 07:45:02 3 C 4.28 g/m*3 3 C 0 km/h
160 05-05-2010 07:57:02 3.4 C 4.4 g/m*3 3.4 C 0 km/h
161 05-05-2010 08:09:02 3.8 C 4.45 g/m*3 3.8 C 0 km/h
162 05-05-2010 08:21:02 4.4 C 4.31 g/m*3 4.4 C 0 km/h
163 05-05-2010 08:33:02 4.6 C 4.17 g/m*3 4.6 C 0 km/h
164 05-05-2010 08:45:02 4.9 C 4.12 g/m*3 4.9 C 0 km/h
165 05-05-2010 08:57:02 5.3 C 4.02 g/m*3 5.3 C 0 km/h
166 05-05-2010 09:09:01 6 C 3.99 g/m*3 6 C 0 km/h
167 05-05-2010 09:21:02 6.6 C 3.85 g/m*3 6.6 C 0 km/h
168 05-05-2010 09:33:02 7.2 C 3.92 g/m*3 7.2 C 0 km/h
169 05-05-2010 09:45:02 7.5 C 3.76 g/m*3 7.5 C 0 km/h
170 05-05-2010 09:57:02 7.9 C 3.7 g/m*3 7.9 C 0 km/h
171 05-05-2010 10:09:02 8.1 C 3.58 g/m*3 8.1 C 0 km/h
172 05-05-2010 10:21:02 8.6 C 3.52 g/m*3 8.6 C 0 km/h
173 05-05-2010 10:33:02 9.5 C 3.37 g/m*3 9.5 C 0 km/h
174 05-05-2010 10:45:01 9.6 C 3.11 g/m*3 9.6 C 0 km/h
175 05-05-2010 10:57:01 10 C 2.91 g/m*3 10 C 0 km/h
Sensor: Nr:Datum:Temp:Abs-Feuchte:Windchill:Wind:
Aussen-T/F 176 05-05-2010 11:09:02 10.4 C 2.89 g/m*3 10.4 C 0 km/h
177 05-05-2010 11:21:01 10.7 C 2.75 g/m*3 10.7 C 0 km/h
178 05-05-2010 11:33:02 11.2 C 3.04 g/m*3 11.2 C 0 km/h
179 05-05-2010 11:45:02 11.9 C 2.65 g/m*3 11.9 C 0 km/h
180 05-05-2010 11:57:02 12.5 C 2.42 g/m*3 12.5 C 0 km/h
181 05-05-2010 12:09:02 12.7 C 2.23 g/m*3 12.7 C 0 km/h
182 05-05-2010 12:21:01 12.7 C 2.23 g/m*3 12.7 C 0 km/h
183 05-05-2010 12:33:02 13.4 C 2.32 g/m*3 13.4 C 0 km/h
184 05-05-2010 12:45:02 14.6 C 2.5 g/m*3 14.6 C 0 km/h
185 05-05-2010 12:57:02 15.2 C 2.6 g/m*3 15.2 C 0 km/h
186 05-05-2010 13:09:02 15.9 C 2.71 g/m*3 15.9 C 0 km/h
187 05-05-2010 13:21:01 16.6 C 2.83 g/m*3 16.6 C 0 km/h
188 05-05-2010 13:33:02 17.2 C 2.93 g/m*3 17.2 C 0 km/h
189 05-05-2010 13:45:01 16.6 C 2.83 g/m*3 16.6 C 0 km/h
190 05-05-2010 13:57:01 16.4 C 2.79 g/m*3 16.4 C 0 km/h
191 05-05-2010 14:09:02 16.7 C 2.84 g/m*3 16.7 C 0 km/h
192 05-05-2010 14:21:02 16.7 C 2.84 g/m*3 16.7 C 0 km/h
193 05-05-2010 14:33:01 17 C 2.89 g/m*3 17 C 0 km/h
194 05-05-2010 14:45:01 17.4 C 2.96 g/m*3 17.4 C 0 km/h
195 05-05-2010 14:57:01 17.5 C 2.98 g/m*3 17.5 C 0 km/h
196 05-05-2010 15:09:02 18.3 C 3.13 g/m*3 18.3 C 0 km/h
197 05-05-2010 15:21:02 18.2 C 3.11 g/m*3 18.2 C 0 km/h
198 05-05-2010 15:33:01 17.8 C 3.04 g/m*3 17.8 C 0 km/h
199 05-05-2010 15:45:02 18 C 3.07 g/m*3 18 C 0 km/h
200 05-05-2010 15:57:02 18.2 C 3.11 g/m*3 18.2 C 0 km/h
Sensor: Nr:Datum:Temp:Abs-Feuchte:Windchill:Wind:
Aussen-T/F 201 05-05-2010 16:09:01 18.3 C 3.13 g/m*3 18.3 C 0 km/h
202 05-05-2010 16:21:01 18.1 C 3.09 g/m*3 18.1 C 0 km/h
203 05-05-2010 16:33:01 17.7 C 3.02 g/m*3 17.7 C 0 km/h
204 05-05-2010 16:45:02 17.5 C 2.98 g/m*3 17.5 C 0 km/h
205 05-05-2010 16:57:02 17.2 C 2.93 g/m*3 17.2 C 0 km/h
206 05-05-2010 17:09:02 16.7 C 2.84 g/m*3 16.7 C 0 km/h
207 05-05-2010 17:21:02 16.2 C 2.76 g/m*3 16.2 C 0 km/h
208 05-05-2010 17:33:02 15.6 C 2.66 g/m*3 15.6 C 0 km/h
209 05-05-2010 17:45:02 15.1 C 2.58 g/m*3 15.1 C 0 km/h
210 05-05-2010 17:57:02 14.8 C 2.53 g/m*3 14.8 C 0 km/h
211 05-05-2010 18:09:01 14.5 C 2.49 g/m*3 14.5 C 0 km/h
212 05-05-2010 18:21:01 14.4 C 2.47 g/m*3 14.4 C 0 km/h
213 05-05-2010 18:33:02 14.2 C 2.44 g/m*3 14.2 C 0 km/h
214 05-05-2010 18:45:02 14.1 C 2.43 g/m*3 14.1 C 0 km/h
215 05-05-2010 18:57:02 13.8 C 2.38 g/m*3 13.8 C 0 km/h
216 05-05-2010 19:09:02 13.7 C 2.37 g/m*3 13.7 C 0 km/h
217 05-05-2010 19:21:01 13.6 C 2.35 g/m*3 13.6 C 0 km/h
218 05-05-2010 19:33:02 13.5 C 2.34 g/m*3 13.5 C 0 km/h
219 05-05-2010 19:45:02 13.3 C 2.43 g/m*3 13.3 C 0 km/h
220 05-05-2010 19:57:02 13.1 C 2.28 g/m*3 13.1 C 0 km/h
221 05-05-2010 20:09:02 13 C 2.49 g/m*3 13 C 0 km/h
222 05-05-2010 20:21:02 12.9 C 2.82 g/m*3 12.9 C 0 km/h
223 05-05-2010 20:33:02 12.8 C 2.91 g/m*3 12.8 C 0 km/h
224 05-05-2010 20:45:02 12.7 C 2.89 g/m*3 12.7 C 0 km/h
225 05-05-2010 20:57:02 12.6 C 2.88 g/m*3 12.6 C 0 km/h
Sensor: Nr:Datum:Temp:Abs-Feuchte:Windchill:Wind:
Aussen-T/F 226 05-05-2010 21:09:02 12.5 C 2.86 g/m*3 12.5 C 0 km/h
227 05-05-2010 21:21:02 12.4 C 2.84 g/m*3 12.4 C 0 km/h
228 05-05-2010 21:33:02 12.3 C 2.82 g/m*3 12.3 C 0 km/h
229 05-05-2010 21:45:02 12.3 C 2.93 g/m*3 12.3 C 0 km/h
230 05-05-2010 21:57:02 12.2 C 2.91 g/m*3 12.2 C 0 km/h
231 05-05-2010 22:09:03 12.1 C 3 g/m*3 12.1 C 0 km/h
232 05-05-2010 22:21:02 12 C 3.09 g/m*3 12 C 0 km/h
233 05-05-2010 22:34:02 11.9 C 3.39 g/m*3 11.9 C 0 km/h
234 05-05-2010 22:46:02 11.7 C 3.35 g/m*3 11.7 C 0 km/h
235 05-05-2010 22:58:02 11.7 C 3.35 g/m*3 11.7 C 0 km/h
236 05-05-2010 23:10:02 11.6 C 3.22 g/m*3 11.6 C 0 km/h
237 05-05-2010 23:22:02 11.5 C 3.2 g/m*3 11.5 C 0 km/h
238 05-05-2010 23:34:02 11.6 C 3.33 g/m*3 11.6 C 0 km/h
239 05-05-2010 23:46:02 11.4 C 3.39 g/m*3 11.4 C 0 km/h
240 05-05-2010 23:58:02 11.4 C 3.39 g/m*3 11.4 C 0 km/h
241 06-05-2010 00:10:02 11.3 C 3.47 g/m*3 11.3 C 0 km/h
242 06-05-2010 00:22:02 11.2 C 3.55 g/m*3 11.2 C 0 km/h
243 06-05-2010 00:34:02 11.2 C 3.55 g/m*3 11.2 C 0 km/h
244 06-05-2010 00:46:02 10.7 C 4.03 g/m*3 10.7 C 0 km/h
245 06-05-2010 00:58:02 9.8 C 4.45 g/m*3 9.8 C 0 km/h
246 06-05-2010 01:10:02 8.7 C 5.1 g/m*3 8.7 C 0 km/h
247 06-05-2010 01:22:02 7.9 C 5.5 g/m*3 7.9 C 0 km/h
248 06-05-2010 01:34:02 7.3 C 5.93 g/m*3 7.3 C 0 km/h
249 06-05-2010 01:46:02 7.1 C 6.01 g/m*3 7.1 C 0 km/h
250 06-05-2010 01:58:03 7 C 6.04 g/m*3 7 C 0 km/h
Sensor: Nr:Datum:Temp:Abs-Feuchte:Windchill:Wind:
Aussen-T/F 251 06-05-2010 02:10:03 6.9 C 6.31 g/m*3 6.9 C 0 km/h
252 06-05-2010 02:22:03 6.8 C 6.42 g/m*3 6.8 C 0 km/h
253 06-05-2010 02:34:03 6.7 C 6.53 g/m*3 6.7 C 0 km/h
254 06-05-2010 02:46:03 6.5 C 6.52 g/m*3 6.5 C 0 km/h
255 06-05-2010 02:58:03 6.8 C 6.73 g/m*3 6.8 C 0 km/h
256 06-05-2010 03:10:03 6.8 C 6.81 g/m*3 6.8 C 0 km/h
257 06-05-2010 03:22:03 6.7 C 6.84 g/m*3 6.7 C 0 km/h
258 06-05-2010 03:34:03 6.5 C 6.82 g/m*3 6.5 C 0 km/h
259 06-05-2010 03:46:03 6.9 C 7.01 g/m*3 6.9 C 0 km/h
260 06-05-2010 03:58:03 6.8 C 7.04 g/m*3 6.8 C 0 km/h
261 06-05-2010 04:10:03 6.9 C 7.08 g/m*3 6.9 C 0 km/h
262 06-05-2010 04:22:03 6.9 C 7.08 g/m*3 6.9 C 0 km/h
263 06-05-2010 04:34:03 6.9 C 7.08 g/m*3 6.9 C 0 km/h
264 06-05-2010 04:46:03 6.9 C 7.08 g/m*3 6.9 C 0 km/h
265 06-05-2010 04:58:03 6.8 C 7.04 g/m*3 6.8 C 0 km/h
266 06-05-2010 05:10:03 6.6 C 7.02 g/m*3 6.6 C 0 km/h
267 06-05-2010 05:22:03 6.5 C 6.97 g/m*3 6.5 C 0 km/h
268 06-05-2010 05:34:03 6.6 C 7.02 g/m*3 6.6 C 0 km/h
269 06-05-2010 05:46:03 6.8 C 7.11 g/m*3 6.8 C 0 km/h
270 06-05-2010 05:58:04 6.8 C 7.11 g/m*3 6.8 C 0 km/h
271 06-05-2010 06:10:04 6.5 C 6.97 g/m*3 6.5 C 0 km/h
272 06-05-2010 06:22:04 6.5 C 6.97 g/m*3 6.5 C 0 km/h
273 06-05-2010 06:34:04 6.5 C 6.97 g/m*3 6.5 C 0 km/h
274 06-05-2010 06:46:04 6.6 C 7.02 g/m*3 6.6 C 0 km/h
275 06-05-2010 06:58:04 6.5 C 7.05 g/m*3 6.5 C 0 km/h
Sensor: Nr:Datum:Temp:Abs-Feuchte:Windchill:Wind:
Aussen-T/F 276 06-05-2010 07:10:01 6.4 C 7 g/m*3 6.4 C 0 km/h
277 06-05-2010 07:22:02 6.4 C 7 g/m*3 6.4 C 0 km/h
278 06-05-2010 07:34:01 6.3 C 6.96 g/m*3 6.3 C 0 km/h
279 06-05-2010 07:46:03 6.5 C 7.05 g/m*3 6.5 C 0 km/h
280 06-05-2010 07:58:03 6.3 C 6.96 g/m*3 6.3 C 0 km/h
281 06-05-2010 08:10:02 6.1 C 6.87 g/m*3 6.1 C 0 km/h
282 06-05-2010 08:22:02 6.2 C 6.91 g/m*3 6.2 C 0 km/h
283 06-05-2010 08:34:03 6.2 C 6.91 g/m*3 6.2 C 0 km/h
284 06-05-2010 08:46:02 6.4 C 7 g/m*3 6.4 C 0 km/h
285 06-05-2010 08:58:02 6.2 C 6.91 g/m*3 6.2 C 0 km/h
286 06-05-2010 09:10:02 6.2 C 6.84 g/m*3 6.2 C 0 km/h
287 06-05-2010 09:22:01 6.4 C 7 g/m*3 6.4 C 0 km/h
288 06-05-2010 09:34:02 6.6 C 7.1 g/m*3 6.6 C 0 km/h
289 06-05-2010 09:46:02 6.8 C 7.19 g/m*3 6.8 C 0 km/h
290 06-05-2010 09:58:02 6.8 C 7.19 g/m*3 6.8 C 0 km/h
291 06-05-2010 10:10:02 6.8 C 7.19 g/m*3 6.8 C 0 km/h
292 06-05-2010 10:22:02 6.9 C 7.24 g/m*3 6.9 C 0 km/h
293 06-05-2010 10:34:02 6.8 C 7.11 g/m*3 6.8 C 0 km/h
294 06-05-2010 10:46:02 6.8 C 7.11 g/m*3 6.8 C 0 km/h
295 06-05-2010 10:58:02 6.9 C 7.16 g/m*3 6.9 C 0 km/h
296 06-05-2010 11:10:02 7 C 7.21 g/m*3 7 C 0 km/h
297 06-05-2010 11:22:02 7 C 7.13 g/m*3 7 C 0 km/h
298 06-05-2010 11:34:02 7 C 7.13 g/m*3 7 C 0 km/h
299 06-05-2010 11:46:01 7.1 C 7.18 g/m*3 7.1 C 0 km/h
300 06-05-2010 11:58:01 7.1 C 7.18 g/m*3 7.1 C 0 km/h
Sensor: Nr:Datum:Temp:Abs-Feuchte:Windchill:Wind:
Aussen-T/F 301 06-05-2010 12:10:01 7.2 C 7.22 g/m*3 7.2 C 0 km/h
302 06-05-2010 12:22:02 6.9 C 7.08 g/m*3 6.9 C 0 km/h
303 06-05-2010 12:34:02 6.9 C 7.01 g/m*3 6.9 C 0 km/h
304 06-05-2010 12:46:01 7.1 C 7.1 g/m*3 7.1 C 0 km/h
305 06-05-2010 12:58:01 7.2 C 7.06 g/m*3 7.2 C 0 km/h
306 06-05-2010 13:10:02 7.5 C 7.2 g/m*3 7.5 C 0 km/h
307 06-05-2010 13:22:01 7.7 C 7.3 g/m*3 7.7 C 0 km/h
308 06-05-2010 13:34:02 7.4 C 7.16 g/m*3 7.4 C 0 km/h
309 06-05-2010 13:46:02 7.3 C 7.19 g/m*3 7.3 C 0 km/h
310 06-05-2010 13:58:02 7.2 C 7.14 g/m*3 7.2 C 0 km/h
311 06-05-2010 14:10:03 7.3 C 7.27 g/m*3 7.3 C 0 km/h
312 06-05-2010 14:22:02 7.4 C 7.32 g/m*3 7.4 C 0 km/h
313 06-05-2010 14:34:03 7.3 C 7.27 g/m*3 7.3 C 0 km/h
314 06-05-2010 14:46:02 7.4 C 7.32 g/m*3 7.4 C 0 km/h
315 06-05-2010 14:58:02 7.6 C 7.49 g/m*3 7.6 C 0 km/h
316 06-05-2010 15:10:02 7.5 C 7.44 g/m*3 7.5 C 0 km/h
317 06-05-2010 15:22:02 7.1 C 7.18 g/m*3 7.1 C 0 km/h
318 06-05-2010 15:34:03 7.1 C 7.25 g/m*3 7.1 C 0 km/h
319 06-05-2010 15:46:01 6.9 C 7.16 g/m*3 6.9 C 0 km/h
320 06-05-2010 15:58:01 6.9 C 7.24 g/m*3 6.9 C 0 km/h
321 06-05-2010 16:10:02 6.7 C 7.14 g/m*3 6.7 C 0 km/h
322 06-05-2010 16:22:02 6.5 C 6.97 g/m*3 6.5 C 0 km/h
323 06-05-2010 16:34:02 6.5 C 6.97 g/m*3 6.5 C 0 km/h
324 06-05-2010 16:46:03 6.5 C 6.97 g/m*3 6.5 C 0 km/h
325 06-05-2010 16:58:03 6.5 C 6.97 g/m*3 6.5 C 0 km/h
Sensor: Nr:Datum:Temp:Abs-Feuchte:Windchill:Wind:
Aussen-T/F 326 06-05-2010 17:10:02 6.5 C 6.9 g/m*3 6.5 C 0 km/h
327 06-05-2010 17:22:03 6.6 C 6.95 g/m*3 6.6 C 0 km/h
328 06-05-2010 17:34:02 6.4 C 6.85 g/m*3 6.4 C 0 km/h
329 06-05-2010 17:46:03 6.5 C 6.9 g/m*3 6.5 C 0 km/h
330 06-05-2010 17:58:03 6.3 C 6.81 g/m*3 6.3 C 0 km/h
331 06-05-2010 18:10:02 6 C 6.6 g/m*3 6 C 0 km/h
332 06-05-2010 18:22:02 5.9 C 6.56 g/m*3 5.9 C 0 km/h
333 06-05-2010 18:34:02 5.8 C 6.52 g/m*3 5.8 C 0 km/h
334 06-05-2010 18:46:02 5.9 C 6.63 g/m*3 5.9 C 0 km/h
335 06-05-2010 18:58:02 5.9 C 6.63 g/m*3 5.9 C 0 km/h
336 06-05-2010 19:10:02 6 C 6.6 g/m*3 6 C 0 km/h
337 06-05-2010 19:22:02 5.9 C 6.63 g/m*3 5.9 C 0 km/h
338 06-05-2010 19:34:02 5.9 C 6.63 g/m*3 5.9 C 0 km/h
339 06-05-2010 19:46:02 5.7 C 6.55 g/m*3 5.7 C 0 km/h
340 06-05-2010 19:58:02 5.6 C 6.57 g/m*3 5.6 C 0 km/h
341 06-05-2010 20:10:01 5.6 C 6.57 g/m*3 5.6 C 0 km/h
342 06-05-2010 20:22:02 5.5 C 6.53 g/m*3 5.5 C 0 km/h
343 06-05-2010 20:34:02 5.6 C 6.65 g/m*3 5.6 C 0 km/h
344 06-05-2010 20:46:02 5.4 C 6.56 g/m*3 5.4 C 0 km/h
345 06-05-2010 20:58:02 5.4 C 6.56 g/m*3 5.4 C 0 km/h
346 06-05-2010 21:10:01 5.4 C 6.56 g/m*3 5.4 C 0 km/h
347 06-05-2010 21:22:02 5.4 C 6.56 g/m*3 5.4 C 0 km/h
348 06-05-2010 21:34:01 5.3 C 6.52 g/m*3 5.3 C 0 km/h
349 06-05-2010 21:46:03 5.4 C 6.56 g/m*3 5.4 C 0 km/h
350 06-05-2010 21:58:03 5.4 C 6.56 g/m*3 5.4 C 0 km/h
Sensor: Nr:Datum:Temp:Abs-Feuchte:Windchill:Wind:
Aussen-T/F 351 06-05-2010 22:10:02 5.4 C 6.63 g/m*3 5.4 C 0 km/h
352 06-05-2010 22:22:02 5.4 C 6.63 g/m*3 5.4 C 0 km/h
353 06-05-2010 22:34:02 5.4 C 6.63 g/m*3 5.4 C 0 km/h
354 06-05-2010 22:47:02 5.4 C 6.63 g/m*3 5.4 C 0 km/h
355 06-05-2010 22:59:02 5.4 C 6.63 g/m*3 5.4 C 0 km/h
356 06-05-2010 23:11:02 5.4 C 6.63 g/m*3 5.4 C 0 km/h
357 06-05-2010 23:23:02 5.4 C 6.63 g/m*3 5.4 C 0 km/h
358 06-05-2010 23:35:02 5.4 C 6.63 g/m*3 5.4 C 0 km/h
359 06-05-2010 23:47:02 5.3 C 6.58 g/m*3 5.3 C 0 km/h
360 06-05-2010 23:59:02 5.3 C 6.58 g/m*3 5.3 C 0 km/h

Legende:
   Min
   Max


Maximal/Minimal-Werte vom 04.05.2010 - 06.05.2010

Sensor Min Max Avg
Temp
(Aussen-T/F)
2.5 °C
05-05-2010  06:45:03
18.3 °C
05-05-2010  15:09:02
8.85 °C
Abs-Feuchte
(Aussen-T/F)
2.23 g/m*3
05-05-2010  12:09:02
7.49 g/m*3
06-05-2010  14:58:02
5.16 g/m*3
Windchill
(Aussen-T/F)
2.5 C
05-05-2010  06:45:03
18.3 C
05-05-2010  15:09:02
8.83 C

Die Daten stammen von einer Davis Vantage Pro 2 Wetter-Station und werden unter Linux mit der Software wview2wettercgi und aufbereitet. Alle Angaben erfolgen ohne Gewähr für ihre Vollständigkeit oder Richtigkeit.
Kontakt: Rainer Krienke krienke@uni-koblenz.de . Meine Webseiten an der Uni Koblenz oder privat.
Version: $Revision: 0.78 $